createdAt,value
2023-01-05T00:02:17.501Z,8.23
2023-01-05T00:04:49.357Z,2.40
2023-01-05T00:07:30.535Z,2.57
2023-01-05T00:09:57.949Z,3.47
2023-01-05T00:12:50.544Z,12.67
2023-01-05T00:15:36.343Z,1.60
2023-01-05T00:18:28.532Z,1.80
2023-01-05T00:21:14.746Z,0.37
2023-01-05T00:23:48.568Z,9.40
2023-01-05T00:26:15.979Z,5.67
2023-01-05T00:28:43.359Z,1.00
2023-01-05T00:31:17.585Z,11.77
2023-01-05T00:33:45.025Z,2.33
2023-01-05T00:36:12.464Z,3.00
2023-01-05T00:38:50.015Z,4.07
2023-01-05T00:41:17.421Z,5.90
2023-01-05T00:43:44.803Z,0.70
2023-01-05T00:46:18.987Z,5.90
2023-01-05T00:48:46.351Z,1.13
2023-01-05T00:51:13.757Z,5.53
2023-01-05T00:53:47.924Z,11.33
2023-01-05T00:56:15.661Z,0.40
2023-01-05T00:58:43.007Z,0.10
2023-01-05T01:01:18.097Z,1.83
2023-01-05T01:03:47.325Z,5.73
2023-01-05T01:06:15.065Z,0.10
2023-01-05T01:08:49.321Z,0.17
2023-01-05T01:11:17.007Z,13.77
2023-01-05T01:13:49.021Z,33.10
2023-01-05T01:16:25.353Z,0.43
2023-01-05T01:18:53.769Z,3.70
2023-01-05T01:21:22.969Z,0.50
2023-01-05T01:23:57.306Z,0.20
2023-01-05T01:26:24.691Z,0.10
2023-01-05T01:28:52.091Z,0.37
2023-01-05T01:31:26.349Z,0.40
2023-01-05T01:33:53.795Z,0.10
2023-01-05T01:36:21.234Z,0.10
2023-01-05T01:38:55.331Z,0.10
2023-01-05T01:41:22.717Z,0.20
2023-01-05T01:43:52.860Z,0.20
2023-01-05T01:46:29.377Z,0.10
2023-01-05T01:49:11.325Z,0.10
2023-01-05T01:51:52.674Z,0.37
2023-01-05T01:54:20.339Z,0.20
2023-01-05T01:57:01.721Z,0.10
2023-01-05T01:59:29.349Z,0.10
2023-01-05T02:02:20.035Z,0.10
2023-01-05T02:04:47.620Z,0.17
2023-01-05T02:07:19.058Z,0.30
2023-01-05T02:10:03.854Z,0.10
2023-01-05T02:13:06.056Z,0.20
2023-01-05T02:15:51.988Z,0.47
2023-01-05T02:18:39.222Z,0.30
2023-01-05T02:21:28.272Z,0.33
2023-01-05T02:24:45.210Z,0.20
2023-01-05T02:27:54.300Z,0.10
2023-01-05T02:30:59.475Z,1.47
2023-01-05T02:34:03.306Z,0.10
2023-01-05T02:36:57.556Z,0.23
2023-01-05T02:39:56.665Z,0.30
2023-01-05T02:42:26.356Z,0.20
2023-01-05T02:44:56.019Z,0.00
2023-01-05T02:47:34.067Z,0.10
2023-01-05T02:50:24.533Z,0.07
2023-01-05T02:53:27.103Z,0.00
2023-01-05T02:56:11.079Z,0.17
2023-01-05T02:58:57.106Z,0.10
2023-01-05T03:01:32.437Z,0.00
2023-01-05T03:04:24.123Z,0.00
2023-01-05T03:07:05.818Z,0.00
2023-01-05T03:09:44.809Z,0.03
2023-01-05T03:12:50.938Z,0.23
2023-01-05T03:15:40.254Z,0.10
2023-01-05T03:18:11.822Z,0.10
2023-01-05T03:20:50.816Z,0.80
2023-01-05T03:23:39.187Z,0.07
2023-01-05T03:26:36.811Z,0.10
2023-01-05T03:29:29.715Z,0.10
2023-01-05T03:32:48.865Z,0.27
2023-01-05T03:35:34.015Z,0.43
2023-01-05T03:38:19.877Z,0.17
2023-01-05T03:40:51.016Z,0.10
2023-01-05T03:43:25.826Z,0.07
2023-01-05T03:45:56.385Z,0.60
2023-01-05T03:48:33.880Z,0.07
2023-01-05T03:51:01.310Z,0.10
2023-01-05T03:53:29.201Z,0.00
2023-01-05T03:56:03.841Z,0.20
2023-01-05T03:58:31.493Z,0.00
2023-01-05T04:00:59.095Z,0.00
2023-01-05T04:03:33.925Z,0.43
2023-01-05T04:06:07.961Z,0.10
2023-01-05T04:08:41.871Z,0.10
2023-01-05T04:11:24.413Z,0.23
2023-01-05T04:14:00.010Z,1.60
2023-01-05T04:16:28.881Z,0.00
2023-01-05T04:18:56.654Z,0.67
2023-01-05T04:21:31.018Z,0.10
2023-01-05T04:23:58.703Z,0.10
2023-01-05T04:26:26.220Z,0.87
2023-01-05T04:29:05.852Z,0.00
2023-01-05T04:31:33.491Z,0.00
2023-01-05T04:34:01.053Z,0.07
2023-01-05T04:36:35.058Z,0.00
2023-01-05T04:39:02.583Z,0.13
2023-01-05T04:41:30.223Z,0.00
2023-01-05T04:44:05.049Z,0.10
2023-01-05T04:46:32.825Z,0.00
2023-01-05T04:49:00.411Z,1.10
2023-01-05T04:51:37.357Z,0.00
2023-01-05T04:54:05.430Z,0.10
2023-01-05T04:56:33.207Z,0.10
2023-01-05T04:59:10.329Z,0.30
2023-01-05T05:01:39.945Z,0.70
2023-01-05T05:04:21.871Z,0.10
2023-01-05T05:06:49.568Z,0.00
2023-01-05T05:09:17.062Z,0.00
2023-01-05T05:11:50.834Z,0.10
2023-01-05T05:14:18.454Z,0.00
2023-01-05T05:16:45.942Z,0.00
2023-01-05T05:19:19.891Z,0.00
2023-01-05T05:21:47.439Z,0.00
2023-01-05T05:24:15.075Z,0.00
2023-01-05T05:26:48.843Z,0.00
2023-01-05T05:29:16.538Z,0.00
2023-01-05T05:31:44.267Z,0.00
2023-01-05T05:34:17.875Z,0.40
2023-01-05T05:36:45.676Z,0.00
2023-01-05T05:39:14.514Z,0.10
2023-01-05T05:41:48.831Z,0.83
2023-01-05T05:44:16.385Z,0.07
2023-01-05T05:46:43.967Z,0.00
2023-01-05T05:49:19.876Z,0.00
2023-01-05T05:51:47.504Z,0.00
2023-01-05T05:54:16.785Z,0.10
2023-01-05T05:56:51.854Z,0.00
2023-01-05T05:59:19.315Z,1.13
2023-01-05T06:02:00.984Z,0.10
2023-01-05T06:04:34.965Z,1.13
2023-01-05T06:07:08.826Z,0.90
2023-01-05T06:09:36.783Z,1.23
2023-01-05T06:12:04.894Z,1.53
2023-01-05T06:14:38.882Z,2.30
2023-01-05T06:17:07.577Z,1.00
2023-01-05T06:19:35.110Z,2.27
2023-01-05T06:22:13.867Z,3.20
2023-01-05T06:24:41.372Z,3.37
2023-01-05T06:27:08.834Z,1.53
2023-01-05T06:29:42.846Z,1.90
2023-01-05T06:32:10.394Z,2.83
2023-01-05T06:34:37.977Z,0.80
2023-01-05T06:37:12.906Z,0.70
2023-01-05T06:39:40.517Z,1.13
2023-01-05T06:42:08.269Z,0.90
2023-01-05T06:44:42.817Z,2.33
2023-01-05T06:47:10.309Z,2.03
2023-01-05T06:49:37.901Z,3.23
2023-01-05T06:52:18.998Z,3.80
2023-01-05T06:54:46.775Z,3.27
2023-01-05T06:57:16.268Z,6.70
2023-01-05T06:59:50.258Z,2.10
2023-01-05T07:02:48.508Z,4.10
2023-01-05T07:05:23.463Z,4.03
2023-01-05T07:07:52.071Z,5.23
2023-01-05T07:10:21.509Z,4.00
2023-01-05T07:12:55.477Z,5.20
2023-01-05T07:15:25.205Z,10.33
2023-01-05T07:17:52.952Z,6.50
2023-01-05T07:20:27.267Z,5.13
2023-01-05T07:22:55.260Z,6.70
2023-01-05T07:25:23.309Z,4.10
2023-01-05T07:28:01.247Z,15.00
2023-01-05T07:30:29.147Z,10.17
2023-01-05T07:33:08.289Z,5.03
2023-01-05T07:35:36.157Z,10.67
2023-01-05T07:38:04.115Z,9.07
2023-01-05T07:40:38.229Z,7.90
2023-01-05T07:43:06.156Z,7.73
2023-01-05T07:45:33.985Z,10.20
2023-01-05T07:48:10.324Z,8.77
2023-01-05T07:50:37.927Z,9.93
2023-01-05T07:53:07.925Z,6.83
2023-01-05T07:55:42.928Z,10.27
2023-01-05T07:58:10.630Z,8.07
2023-01-05T08:00:38.298Z,10.73
2023-01-05T08:03:12.968Z,9.00
2023-01-05T08:05:47.950Z,10.80
2023-01-05T08:08:24.644Z,8.03
2023-01-05T08:10:52.867Z,8.33
2023-01-05T08:13:51.252Z,7.93
2023-01-05T08:16:19.416Z,12.27
2023-01-05T08:18:47.233Z,12.83
2023-01-05T08:21:27.292Z,15.33
2023-01-05T08:23:59.754Z,15.70
2023-01-05T08:26:34.153Z,11.60
2023-01-05T08:29:04.002Z,10.23
2023-01-05T08:31:44.259Z,13.30
2023-01-05T08:34:11.804Z,11.20
2023-01-05T08:36:42.630Z,10.93
2023-01-05T08:39:18.140Z,9.23
2023-01-05T08:41:53.365Z,13.17
2023-01-05T08:44:30.165Z,13.23
2023-01-05T08:46:57.860Z,10.27
2023-01-05T08:49:25.283Z,16.33
2023-01-05T08:52:05.578Z,10.43
2023-01-05T08:54:33.462Z,15.83
2023-01-05T08:57:01.167Z,12.30
2023-01-05T08:59:35.149Z,18.53
2023-01-05T09:02:09.526Z,12.20
2023-01-05T09:04:50.262Z,16.50
2023-01-05T09:07:17.933Z,16.97
2023-01-05T09:09:45.793Z,21.70
2023-01-05T09:12:22.230Z,15.93
2023-01-05T09:14:54.634Z,16.70
2023-01-05T09:17:22.132Z,20.20
2023-01-05T09:19:56.346Z,14.10
2023-01-05T09:22:23.907Z,10.73
2023-01-05T09:24:53.763Z,16.30
2023-01-05T09:27:27.444Z,11.67
2023-01-05T09:29:54.924Z,11.00
2023-01-05T09:32:25.644Z,16.00
2023-01-05T09:34:59.794Z,14.23
2023-01-05T09:37:27.245Z,10.90
2023-01-05T09:39:54.840Z,9.13
2023-01-05T09:42:31.427Z,13.43
2023-01-05T09:45:05.255Z,16.60
2023-01-05T09:47:49.441Z,12.23
2023-01-05T09:50:23.882Z,17.73
2023-01-05T09:53:04.717Z,14.97
2023-01-05T09:55:36.754Z,19.57
2023-01-05T09:58:30.098Z,13.67
2023-01-05T10:01:17.691Z,11.43
2023-01-05T10:04:22.780Z,12.07
2023-01-05T10:06:57.510Z,12.90
2023-01-05T10:09:36.783Z,9.87
2023-01-05T10:12:28.775Z,11.20
2023-01-05T10:15:20.623Z,8.77
2023-01-05T10:17:50.052Z,10.27
2023-01-05T10:20:50.628Z,12.53
2023-01-05T10:23:49.948Z,13.20
2023-01-05T10:27:26.228Z,15.20
2023-01-05T10:30:20.630Z,11.00
2023-01-05T10:36:06.234Z,11.13
2023-01-05T10:39:40.510Z,13.70
2023-01-05T10:42:41.018Z,9.25
2023-01-05T10:45:23.503Z,14.13
2023-01-05T10:47:51.522Z,14.73
2023-01-05T10:50:52.483Z,9.73
2023-01-05T10:53:27.517Z,9.77
2023-01-05T10:56:12.663Z,12.20
2023-01-05T10:58:42.940Z,13.13
2023-01-05T11:01:35.690Z,11.70
2023-01-05T11:04:33.186Z,13.87
2023-01-05T11:07:13.508Z,14.77
2023-01-05T11:09:42.787Z,11.67
2023-01-05T11:12:25.536Z,15.27
2023-01-05T11:14:58.918Z,11.80
2023-01-05T11:17:35.595Z,13.30
2023-01-05T11:20:05.362Z,13.83
2023-01-05T11:22:49.929Z,14.90
2023-01-05T11:25:32.375Z,15.02
2023-01-05T11:28:22.779Z,14.00
2023-01-05T11:31:01.938Z,11.07
2023-01-05T11:33:40.030Z,11.80
2023-01-05T11:36:07.877Z,12.43
2023-01-05T11:38:35.639Z,7.50
2023-01-05T11:41:09.793Z,12.90
2023-01-05T11:43:38.122Z,16.00
2023-01-05T11:46:09.298Z,16.13
2023-01-05T11:48:44.169Z,11.05
2023-01-05T11:51:35.806Z,10.30
2023-01-05T11:54:10.124Z,7.18
2023-01-05T11:56:37.517Z,8.75
2023-01-05T11:59:36.229Z,10.85
2023-01-05T12:03:02.319Z,11.85
2023-01-05T12:06:01.233Z,11.67
2023-01-05T12:08:41.522Z,15.38
2023-01-05T12:11:29.276Z,12.87
2023-01-05T12:14:02.529Z,14.63
2023-01-05T12:17:02.352Z,13.17
2023-01-05T12:19:57.103Z,8.93
2023-01-05T12:22:34.198Z,10.03
2023-01-05T12:25:23.384Z,16.93
2023-01-05T12:28:41.784Z,18.97
2023-01-05T12:34:52.256Z,13.60
2023-01-05T12:37:54.421Z,12.47
2023-01-05T12:40:55.214Z,11.90
2023-01-05T12:43:41.471Z,17.07
2023-01-05T12:46:43.262Z,15.30
2023-01-05T12:49:35.281Z,15.93
2023-01-05T12:52:25.248Z,15.07
2023-01-05T12:55:07.682Z,13.87
2023-01-05T12:57:56.171Z,12.73
2023-01-05T13:00:25.823Z,13.07
2023-01-05T13:03:18.174Z,12.43
2023-01-05T13:06:18.287Z,13.33
2023-01-05T13:09:04.287Z,11.97
2023-01-05T13:11:46.216Z,13.80
2023-01-05T13:14:34.381Z,21.63
2023-01-05T13:17:10.087Z,15.50
2023-01-05T13:19:52.383Z,13.53
2023-01-05T13:22:26.484Z,11.10
2023-01-05T13:25:19.373Z,11.47
2023-01-05T13:27:47.219Z,16.43
2023-01-05T13:30:50.394Z,11.73
2023-01-05T13:33:53.457Z,12.33
2023-01-05T13:36:38.955Z,15.67
2023-01-05T13:39:34.324Z,16.70
2023-01-05T13:42:14.702Z,13.83
2023-01-05T13:44:45.100Z,16.70
2023-01-05T13:47:27.928Z,11.83
2023-01-05T13:50:27.693Z,11.63
2023-01-05T13:53:32.407Z,15.43
2023-01-05T13:56:23.659Z,35.73
2023-01-05T13:59:12.062Z,18.23
2023-01-05T14:01:47.722Z,13.50
2023-01-05T14:04:33.158Z,17.90
2023-01-05T14:07:13.904Z,14.23
2023-01-05T14:10:04.374Z,16.90
2023-01-05T14:12:49.794Z,14.43
2023-01-05T14:15:50.536Z,14.37
2023-01-05T14:18:50.570Z,16.13
2023-01-05T14:21:56.912Z,15.33
2023-01-05T14:24:40.736Z,8.40
2023-01-05T14:27:23.663Z,12.10
2023-01-05T14:32:51.730Z,9.63
2023-01-05T14:35:37.156Z,12.63
2023-01-05T14:38:28.723Z,13.47
2023-01-05T14:40:56.862Z,9.50
2023-01-05T14:43:41.745Z,8.60
2023-01-05T14:46:15.537Z,12.23
2023-01-05T14:49:09.673Z,13.70
2023-01-05T14:51:39.655Z,11.17
2023-01-05T14:54:07.489Z,13.17
2023-01-05T14:56:44.679Z,9.60
2023-01-05T14:59:20.307Z,12.77
2023-01-05T15:02:00.685Z,12.83
2023-01-05T15:04:43.624Z,11.57
2023-01-05T15:07:31.052Z,14.60
2023-01-05T15:10:32.990Z,12.13
2023-01-05T15:16:00.845Z,11.67
2023-01-05T15:19:00.286Z,12.13
2023-01-05T15:21:40.092Z,11.37
2023-01-05T15:24:48.357Z,8.00
2023-01-05T15:28:08.756Z,10.87
2023-01-05T15:31:02.317Z,11.80
2023-01-05T15:33:58.418Z,11.43
2023-01-05T15:36:38.364Z,6.83
2023-01-05T15:39:24.445Z,9.00
2023-01-05T15:42:01.274Z,14.60
2023-01-05T15:44:37.333Z,8.47
2023-01-05T15:47:12.639Z,9.43
2023-01-05T15:49:40.654Z,11.57
2023-01-05T15:52:36.269Z,12.87
2023-01-05T15:55:17.523Z,15.77
2023-01-05T15:58:04.090Z,15.80
2023-01-05T16:00:36.816Z,13.30
2023-01-05T16:03:37.039Z,17.07
2023-01-05T16:06:21.240Z,13.47
2023-01-05T16:08:58.837Z,16.97
2023-01-05T16:11:33.939Z,15.43
2023-01-05T16:14:12.987Z,12.70
2023-01-05T16:16:56.034Z,12.50
2023-01-05T16:19:51.982Z,14.43
2023-01-05T16:22:32.978Z,11.60
2023-01-05T16:25:19.776Z,13.20
2023-01-05T16:27:58.735Z,13.20
2023-01-05T16:30:44.896Z,13.87
2023-01-05T16:33:15.666Z,14.33
2023-01-05T16:35:45.219Z,14.93
2023-01-05T16:38:20.707Z,15.87
2023-01-05T16:40:48.218Z,12.77
2023-01-05T16:43:36.825Z,12.77
2023-01-05T16:46:30.583Z,13.67
2023-01-05T16:49:33.128Z,10.20
2023-01-05T16:52:05.483Z,12.30
2023-01-05T16:54:45.871Z,9.07
2023-01-05T16:57:32.290Z,11.63
2023-01-05T17:00:07.532Z,11.63
2023-01-05T17:02:55.679Z,14.67
2023-01-05T17:05:53.055Z,8.17
2023-01-05T17:08:23.477Z,8.53
2023-01-05T17:11:00.505Z,8.80
2023-01-05T17:13:40.220Z,11.03
2023-01-05T17:16:16.540Z,15.50
2023-01-05T17:18:44.493Z,13.83
2023-01-05T17:21:27.809Z,10.00
2023-01-05T17:23:59.391Z,14.17
2023-01-05T17:26:43.674Z,8.77
2023-01-05T17:29:23.224Z,13.27
2023-01-05T17:31:57.436Z,10.67
2023-01-05T17:34:32.616Z,9.07
2023-01-05T17:37:08.608Z,7.57
2023-01-05T17:39:36.284Z,7.43
2023-01-05T17:42:28.791Z,8.30
2023-01-05T17:44:57.235Z,8.23
2023-01-05T17:47:26.600Z,12.97
2023-01-05T17:50:03.034Z,9.40
2023-01-05T17:52:33.328Z,5.20
2023-01-05T17:55:00.889Z,8.57
2023-01-05T17:57:35.029Z,9.73
2023-01-05T18:00:04.522Z,9.40
2023-01-05T18:02:32.205Z,5.47
2023-01-05T18:05:07.016Z,7.03
2023-01-05T18:07:42.569Z,9.57
2023-01-05T18:10:23.822Z,8.67
2023-01-05T18:12:52.746Z,10.80
2023-01-05T18:15:20.442Z,6.50
2023-01-05T18:20:42.871Z,9.43
2023-01-05T18:23:18.229Z,4.77
2023-01-05T18:25:46.268Z,6.80
2023-01-05T18:28:14.082Z,13.07
2023-01-05T18:30:50.991Z,5.23
2023-01-05T18:33:18.854Z,5.20
2023-01-05T18:35:48.375Z,7.33
2023-01-05T18:38:24.153Z,10.90
2023-01-05T18:40:51.729Z,2.73
2023-01-05T18:43:20.514Z,7.93
2023-01-05T18:46:04.095Z,5.40
2023-01-05T18:48:34.522Z,7.53
2023-01-05T18:51:14.065Z,5.83
2023-01-05T18:53:41.584Z,4.13
2023-01-05T18:56:11.484Z,10.63
2023-01-05T18:58:46.141Z,3.63
2023-01-05T19:01:16.197Z,4.60
2023-01-05T19:04:00.130Z,4.40
2023-01-05T19:06:34.206Z,3.17
2023-01-05T19:09:15.126Z,3.53
2023-01-05T19:11:47.754Z,3.53
2023-01-05T19:14:23.095Z,6.60
2023-01-05T19:16:51.420Z,4.93
2023-01-05T19:19:21.201Z,5.20
2023-01-05T19:22:01.246Z,3.27
2023-01-05T19:24:32.662Z,4.13
2023-01-05T19:27:07.764Z,2.53
2023-01-05T19:30:16.443Z,4.03
2023-01-05T19:32:53.338Z,3.57
2023-01-05T19:35:28.718Z,3.87
2023-01-05T19:38:06.432Z,2.40
2023-01-05T19:40:35.657Z,1.27
2023-01-05T19:43:04.485Z,2.27
2023-01-05T19:45:40.247Z,3.80
2023-01-05T19:48:09.138Z,2.20
2023-01-05T19:50:36.690Z,2.90
2023-01-05T19:53:11.143Z,5.20
2023-01-05T19:56:02.828Z,1.77
2023-01-05T19:58:40.411Z,1.27
2023-01-05T20:01:15.946Z,2.23
2023-01-05T20:03:58.016Z,1.43
2023-01-05T20:06:35.520Z,1.23
2023-01-05T20:09:12.892Z,2.07
2023-01-05T20:11:45.882Z,1.33
2023-01-05T20:14:34.998Z,2.80
2023-01-05T20:17:10.462Z,2.43
2023-01-05T20:19:48.358Z,1.30
2023-01-05T20:22:19.854Z,2.20
2023-01-05T20:24:54.898Z,1.00
2023-01-05T20:27:22.995Z,2.63
2023-01-05T20:29:55.593Z,1.30
2023-01-05T20:32:35.858Z,3.40
2023-01-05T20:35:05.631Z,2.23
2023-01-05T20:37:33.547Z,1.83
2023-01-05T20:40:15.727Z,2.40
2023-01-05T20:42:46.374Z,2.30
2023-01-05T20:45:26.965Z,3.10
2023-01-05T20:48:01.528Z,1.23
2023-01-05T20:50:38.099Z,3.50
2023-01-05T20:53:05.768Z,2.23
2023-01-05T20:55:45.203Z,1.37
2023-01-05T20:58:15.632Z,1.90
2023-01-05T21:01:10.269Z,1.83
2023-01-05T21:03:37.715Z,4.73
2023-01-05T21:06:20.879Z,2.37
2023-01-05T21:08:58.641Z,1.70
2023-01-05T21:11:29.933Z,2.43
2023-01-05T21:14:11.664Z,3.43
2023-01-05T21:17:40.169Z,1.70
2023-01-05T21:20:18.455Z,4.07
2023-01-05T21:23:16.700Z,2.10
2023-01-05T21:26:06.123Z,2.17
2023-01-05T21:28:48.789Z,3.43
2023-01-05T21:31:28.859Z,3.37
2023-01-05T21:33:59.466Z,4.37
2023-01-05T21:36:36.326Z,5.83
2023-01-05T21:39:08.379Z,3.47
2023-01-05T21:42:03.976Z,1.97
2023-01-05T21:44:33.298Z,2.40
2023-01-05T21:47:01.480Z,1.83
2023-01-05T21:49:35.993Z,3.63
2023-01-05T21:52:22.843Z,4.67
2023-01-05T21:55:19.965Z,6.10
2023-01-05T21:57:50.653Z,2.63
2023-01-05T22:00:27.043Z,2.80
2023-01-05T22:02:55.617Z,2.53
2023-01-05T22:08:25.738Z,2.50
2023-01-05T22:11:04.649Z,3.23
2023-01-05T22:13:36.320Z,2.67
2023-01-05T22:16:11.789Z,4.13
2023-01-05T22:18:44.658Z,1.63
2023-01-05T22:21:24.456Z,3.50
2023-01-05T22:23:53.685Z,1.60
2023-01-05T22:26:22.441Z,1.70
2023-01-05T22:28:58.635Z,1.90
2023-01-05T22:31:31.669Z,1.87
2023-01-05T22:34:07.530Z,1.60
2023-01-05T22:36:36.125Z,3.60
2023-01-05T22:39:05.090Z,4.33
2023-01-05T22:41:39.369Z,2.00
2023-01-05T22:44:07.491Z,1.87
2023-01-05T22:46:35.214Z,2.80
2023-01-05T22:49:10.406Z,1.83
2023-01-05T22:51:41.180Z,3.70
2023-01-05T22:54:08.684Z,1.83
2023-01-05T22:56:42.410Z,1.97
2023-01-05T22:59:12.062Z,1.73
2023-01-05T23:01:52.270Z,3.13
2023-01-05T23:04:33.561Z,1.83
2023-01-05T23:07:07.957Z,1.60
2023-01-05T23:09:35.421Z,1.17
2023-01-05T23:12:06.541Z,1.60
2023-01-05T23:14:42.145Z,2.60
2023-01-05T23:17:12.473Z,2.70
2023-01-05T23:19:41.171Z,1.40
2023-01-05T23:22:15.093Z,2.70
2023-01-05T23:24:43.061Z,1.53
2023-01-05T23:27:12.895Z,1.77
2023-01-05T23:29:46.921Z,1.70
2023-01-05T23:32:14.332Z,1.83
2023-01-05T23:34:45.851Z,1.90
2023-01-05T23:37:19.930Z,1.60
2023-01-05T23:39:50.529Z,1.57
2023-01-05T23:42:42.908Z,1.90
2023-01-05T23:45:10.624Z,3.23
2023-01-05T23:47:38.104Z,1.63
2023-01-05T23:50:13.925Z,1.97
2023-01-05T23:52:41.244Z,4.60
2023-01-05T23:55:10.845Z,2.23
2023-01-05T23:57:44.910Z,3.27
